sensor_id;sensor_type;location;lat;lon;timestamp;pressure;altitude;pressure_sealevel;temperature;humidity
22440;BME280;11387;51.612;7.210;2024-01-11T00:00:36;102158.19;;;-5.30;85.72
22440;BME280;11387;51.612;7.210;2024-01-11T00:03:00;102157.44;;;-5.40;85.42
22440;BME280;11387;51.612;7.210;2024-01-11T00:05:23;102155.09;;;-5.43;86.29
22440;BME280;11387;51.612;7.210;2024-01-11T00:07:47;102140.06;;;-5.52;86.64
22440;BME280;11387;51.612;7.210;2024-01-11T00:10:11;102140.09;;;-5.44;86.80
22440;BME280;11387;51.612;7.210;2024-01-11T00:12:34;102145.31;;;-5.60;86.73
22440;BME280;11387;51.612;7.210;2024-01-11T00:14:58;102138.25;;;-5.44;86.91
22440;BME280;11387;51.612;7.210;2024-01-11T00:17:23;102141.50;;;-5.32;87.12
22440;BME280;11387;51.612;7.210;2024-01-11T00:19:47;102135.25;;;-5.23;86.22
22440;BME280;11387;51.612;7.210;2024-01-11T00:22:26;102138.53;;;-5.29;85.91
22440;BME280;11387;51.612;7.210;2024-01-11T00:24:50;102142.59;;;-5.43;86.12
22440;BME280;11387;51.612;7.210;2024-01-11T00:27:13;102137.63;;;-5.37;87.41
22440;BME280;11387;51.612;7.210;2024-01-11T00:29:37;102141.88;;;-5.27;87.62
22440;BME280;11387;51.612;7.210;2024-01-11T00:32:01;102142.75;;;-5.44;87.06
22440;BME280;11387;51.612;7.210;2024-01-11T00:34:26;102143.66;;;-5.61;87.20
22440;BME280;11387;51.612;7.210;2024-01-11T00:36:49;102155.84;;;-5.77;87.85
22440;BME280;11387;51.612;7.210;2024-01-11T00:39:13;102141.44;;;-5.92;88.56
22440;BME280;11387;51.612;7.210;2024-01-11T00:41:36;102146.47;;;-5.89;89.67
22440;BME280;11387;51.612;7.210;2024-01-11T00:44:00;102139.84;;;-6.02;90.17
22440;BME280;11387;51.612;7.210;2024-01-11T00:46:24;102130.28;;;-6.13;90.30
22440;BME280;11387;51.612;7.210;2024-01-11T00:48:47;102147.47;;;-6.25;90.91
22440;BME280;11387;51.612;7.210;2024-01-11T00:51:17;102133.75;;;-6.30;91.43
22440;BME280;11387;51.612;7.210;2024-01-11T00:53:41;102137.31;;;-6.39;92.04
22440;BME280;11387;51.612;7.210;2024-01-11T00:56:05;102142.28;;;-6.44;92.55
22440;BME280;11387;51.612;7.210;2024-01-11T00:58:29;102137.09;;;-6.46;92.89
22440;BME280;11387;51.612;7.210;2024-01-11T01:00:53;102132.63;;;-6.46;93.06
22440;BME280;11387;51.612;7.210;2024-01-11T01:03:17;102141.72;;;-6.48;93.82
22440;BME280;11387;51.612;7.210;2024-01-11T01:05:41;102136.16;;;-6.55;93.96
22440;BME280;11387;51.612;7.210;2024-01-11T01:08:06;102142.09;;;-6.61;94.29
22440;BME280;11387;51.612;7.210;2024-01-11T01:10:29;102131.72;;;-6.64;94.65
22440;BME280;11387;51.612;7.210;2024-01-11T01:12:53;102145.34;;;-6.67;95.03
22440;BME280;11387;51.612;7.210;2024-01-11T01:15:16;102145.03;;;-6.64;95.10
22440;BME280;11387;51.612;7.210;2024-01-11T01:17:40;102158.00;;;-6.51;95.31
22440;BME280;11387;51.612;7.210;2024-01-11T01:20:05;102159.81;;;-6.52;95.25
22440;BME280;11387;51.612;7.210;2024-01-11T01:22:29;102153.72;;;-6.62;95.27
22440;BME280;11387;51.612;7.210;2024-01-11T01:24:53;102149.47;;;-6.55;95.24
22440;BME280;11387;51.612;7.210;2024-01-11T01:27:16;102159.72;;;-6.60;95.45
22440;BME280;11387;51.612;7.210;2024-01-11T01:29:40;102152.44;;;-6.58;95.80
22440;BME280;11387;51.612;7.210;2024-01-11T01:32:04;102149.63;;;-6.56;96.35
22440;BME280;11387;51.612;7.210;2024-01-11T01:34:28;102152.47;;;-6.67;96.30
22440;BME280;11387;51.612;7.210;2024-01-11T01:36:52;102158.56;;;-6.75;96.45
22440;BME280;11387;51.612;7.210;2024-01-11T01:39:15;102151.56;;;-6.76;96.46
22440;BME280;11387;51.612;7.210;2024-01-11T01:41:40;102149.75;;;-6.75;97.06
22440;BME280;11387;51.612;7.210;2024-01-11T01:44:04;102157.88;;;-6.77;97.94
22440;BME280;11387;51.612;7.210;2024-01-11T01:46:28;102145.84;;;-6.81;97.68
22440;BME280;11387;51.612;7.210;2024-01-11T01:48:53;102146.13;;;-6.84;97.65
22440;BME280;11387;51.612;7.210;2024-01-11T01:51:18;102149.78;;;-6.85;97.78
22440;BME280;11387;51.612;7.210;2024-01-11T01:53:42;102149.22;;;-6.89;97.50
22440;BME280;11387;51.612;7.210;2024-01-11T01:56:06;102153.47;;;-6.96;97.93
22440;BME280;11387;51.612;7.210;2024-01-11T01:58:33;102143.66;;;-6.95;98.50
22440;BME280;11387;51.612;7.210;2024-01-11T02:00:57;102149.66;;;-6.93;98.84
22440;BME280;11387;51.612;7.210;2024-01-11T02:03:20;102144.63;;;-6.96;98.95
22440;BME280;11387;51.612;7.210;2024-01-11T02:05:44;102150.66;;;-6.94;99.29
22440;BME280;11387;51.612;7.210;2024-01-11T02:08:12;102155.69;;;-6.91;99.24
22440;BME280;11387;51.612;7.210;2024-01-11T02:10:38;102154.69;;;-6.63;99.29
22440;BME280;11387;51.612;7.210;2024-01-11T02:13:02;102161.81;;;-6.81;98.72
22440;BME280;11387;51.612;7.210;2024-01-11T02:15:33;102155.34;;;-6.78;98.60
22440;BME280;11387;51.612;7.210;2024-01-11T02:17:56;102157.06;;;-6.87;98.59
22440;BME280;11387;51.612;7.210;2024-01-11T02:20:20;102151.06;;;-6.89;99.13
22440;BME280;11387;51.612;7.210;2024-01-11T02:22:47;102142.06;;;-6.78;98.77
22440;BME280;11387;51.612;7.210;2024-01-11T02:25:12;102145.72;;;-6.89;98.64
22440;BME280;11387;51.612;7.210;2024-01-11T02:27:45;102152.63;;;-6.96;98.80
22440;BME280;11387;51.612;7.210;2024-01-11T02:30:10;102159.19;;;-6.91;99.00
22440;BME280;11387;51.612;7.210;2024-01-11T02:32:33;102154.97;;;-6.84;98.79
22440;BME280;11387;51.612;7.210;2024-01-11T02:34:57;102163.97;;;-6.94;98.47
22440;BME280;11387;51.612;7.210;2024-01-11T02:37:21;102164.84;;;-7.03;99.11
22440;BME280;11387;51.612;7.210;2024-01-11T02:39:44;102161.28;;;-6.94;99.66
22440;BME280;11387;51.612;7.210;2024-01-11T02:42:09;102165.84;;;-7.04;99.89
22440;BME280;11387;51.612;7.210;2024-01-11T02:44:33;102165.28;;;-7.08;100.00
22440;BME280;11387;51.612;7.210;2024-01-11T02:46:57;102168.28;;;-6.93;99.55
22440;BME280;11387;51.612;7.210;2024-01-11T02:49:20;102150.91;;;-6.88;99.50
22440;BME280;11387;51.612;7.210;2024-01-11T02:51:44;102151.19;;;-6.91;98.99
22440;BME280;11387;51.612;7.210;2024-01-11T02:54:07;102154.16;;;-6.94;98.33
22440;BME280;11387;51.612;7.210;2024-01-11T02:56:31;102149.22;;;-6.89;98.38
22440;BME280;11387;51.612;7.210;2024-01-11T02:58:56;102150.94;;;-6.97;98.42
22440;BME280;11387;51.612;7.210;2024-01-11T03:01:20;102156.19;;;-7.05;98.97
22440;BME280;11387;51.612;7.210;2024-01-11T03:03:43;102148.78;;;-7.11;98.63
22440;BME280;11387;51.612;7.210;2024-01-11T03:06:08;102143.94;;;-6.98;98.92
22440;BME280;11387;51.612;7.210;2024-01-11T03:08:33;102136.75;;;-7.16;98.70
22440;BME280;11387;51.612;7.210;2024-01-11T03:10:56;102139.28;;;-7.14;98.76
22440;BME280;11387;51.612;7.210;2024-01-11T03:13:20;102138.31;;;-7.23;98.46
22440;BME280;11387;51.612;7.210;2024-01-11T03:15:45;102143.50;;;-7.31;99.02
22440;BME280;11387;51.612;7.210;2024-01-11T03:18:09;102150.78;;;-7.33;99.25
22440;BME280;11387;51.612;7.210;2024-01-11T03:20:33;102155.13;;;-7.32;99.22
22440;BME280;11387;51.612;7.210;2024-01-11T03:22:56;102159.78;;;-7.34;99.70
22440;BME280;11387;51.612;7.210;2024-01-11T03:25:20;102163.50;;;-7.27;100.00
22440;BME280;11387;51.612;7.210;2024-01-11T03:28:01;102167.84;;;-7.26;100.00
22440;BME280;11387;51.612;7.210;2024-01-11T03:30:25;102167.28;;;-7.29;100.00
22440;BME280;11387;51.612;7.210;2024-01-11T03:32:50;102183.63;;;-7.15;99.80
22440;BME280;11387;51.612;7.210;2024-01-11T03:35:14;102182.09;;;-7.07;99.38
22440;BME280;11387;51.612;7.210;2024-01-11T03:37:38;102184.84;;;-6.99;98.57
22440;BME280;11387;51.612;7.210;2024-01-11T03:40:02;102177.06;;;-7.10;97.99
22440;BME280;11387;51.612;7.210;2024-01-11T03:42:26;102170.63;;;-7.18;98.49
22440;BME280;11387;51.612;7.210;2024-01-11T03:44:50;102179.00;;;-7.13;98.45
22440;BME280;11387;51.612;7.210;2024-01-11T03:47:13;102177.75;;;-7.08;98.38
22440;BME280;11387;51.612;7.210;2024-01-11T03:49:38;102183.06;;;-7.08;98.42
22440;BME280;11387;51.612;7.210;2024-01-11T03:52:02;102180.44;;;-7.18;98.65
22440;BME280;11387;51.612;7.210;2024-01-11T03:54:25;102183.50;;;-7.23;98.73
22440;BME280;11387;51.612;7.210;2024-01-11T03:56:49;102179.44;;;-7.17;98.54
22440;BME280;11387;51.612;7.210;2024-01-11T03:59:12;102175.41;;;-7.31;98.58
22440;BME280;11387;51.612;7.210;2024-01-11T04:01:39;102193.91;;;-7.39;98.80
22440;BME280;11387;51.612;7.210;2024-01-11T04:04:03;102175.41;;;-7.31;99.30
22440;BME280;11387;51.612;7.210;2024-01-11T04:06:28;102172.38;;;-7.36;99.13
22440;BME280;11387;51.612;7.210;2024-01-11T04:08:52;102179.66;;;-7.38;99.61
22440;BME280;11387;51.612;7.210;2024-01-11T04:11:15;102171.78;;;-7.30;99.59
22440;BME280;11387;51.612;7.210;2024-01-11T04:13:39;102174.72;;;-7.33;98.81
22440;BME280;11387;51.612;7.210;2024-01-11T04:16:04;102186.31;;;-7.24;98.84
22440;BME280;11387;51.612;7.210;2024-01-11T04:18:28;102182.94;;;-7.17;98.12
22440;BME280;11387;51.612;7.210;2024-01-11T04:20:51;102183.50;;;-7.23;97.78
22440;BME280;11387;51.612;7.210;2024-01-11T04:23:16;102175.41;;;-7.31;98.12
22440;BME280;11387;51.612;7.210;2024-01-11T04:25:40;102181.31;;;-7.37;98.74
22440;BME280;11387;51.612;7.210;2024-01-11T04:28:04;102179.06;;;-7.32;98.46
22440;BME280;11387;51.612;7.210;2024-01-11T04:30:27;102187.16;;;-7.24;98.61
22440;BME280;11387;51.612;7.210;2024-01-11T04:32:51;102183.50;;;-7.23;98.57
22440;BME280;11387;51.612;7.210;2024-01-11T04:35:15;102181.03;;;-7.34;98.25
22440;BME280;11387;51.612;7.210;2024-01-11T04:37:38;102186.22;;;-7.42;99.00
22440;BME280;11387;51.612;7.210;2024-01-11T04:40:05;102208.72;;;-7.27;98.42
22440;BME280;11387;51.612;7.210;2024-01-11T04:42:30;102216.81;;;-7.19;98.20
22440;BME280;11387;51.612;7.210;2024-01-11T04:45:02;102216.81;;;-7.09;97.71
22440;BME280;11387;51.612;7.210;2024-01-11T04:47:27;102217.09;;;-7.22;97.93
22440;BME280;11387;51.612;7.210;2024-01-11T04:49:51;102216.00;;;-7.29;98.06
22440;BME280;11387;51.612;7.210;2024-01-11T04:52:14;102229.56;;;-7.32;98.07
22440;BME280;11387;51.612;7.210;2024-01-11T04:54:37;102210.44;;;-7.45;98.41
22440;BME280;11387;51.612;7.210;2024-01-11T04:57:03;102221.78;;;-7.53;99.08
22440;BME280;11387;51.612;7.210;2024-01-11T04:59:27;102210.84;;;-7.40;98.58
22440;BME280;11387;51.612;7.210;2024-01-11T05:01:51;102217.16;;;-7.41;98.72
22440;BME280;11387;51.612;7.210;2024-01-11T05:04:14;102237.44;;;-7.40;99.35
22440;BME280;11387;51.612;7.210;2024-01-11T05:06:38;102227.75;;;-7.31;98.84
22440;BME280;11387;51.612;7.210;2024-01-11T05:09:01;102224.97;;;-7.39;98.56
22440;BME280;11387;51.612;7.210;2024-01-11T05:11:27;102230.44;;;-7.41;98.82
22440;BME280;11387;51.612;7.210;2024-01-11T05:13:52;102230.25;;;-7.30;98.63
22440;BME280;11387;51.612;7.210;2024-01-11T05:16:18;102234.50;;;-7.37;98.68
22440;BME280;11387;51.612;7.210;2024-01-11T05:18:42;102244.84;;;-7.34;98.37
22440;BME280;11387;51.612;7.210;2024-01-11T05:21:10;102236.47;;;-7.49;98.50
22440;BME280;11387;51.612;7.210;2024-01-11T05:23:33;102232.81;;;-7.57;99.40
22440;BME280;11387;51.612;7.210;2024-01-11T05:25:58;102235.34;;;-7.56;99.74
22440;BME280;11387;51.612;7.210;2024-01-11T05:28:21;102239.25;;;-7.60;100.00
22440;BME280;11387;51.612;7.210;2024-01-11T05:30:46;102240.38;;;-7.62;100.00
22440;BME280;11387;51.612;7.210;2024-01-11T05:33:10;102243.16;;;-7.64;100.00
22440;BME280;11387;51.612;7.210;2024-01-11T05:35:34;102247.66;;;-7.55;100.00
22440;BME280;11387;51.612;7.210;2024-01-11T05:37:57;102239.81;;;-7.56;100.00
22440;BME280;11387;51.612;7.210;2024-01-11T05:40:21;102241.50;;;-7.55;100.00
22440;BME280;11387;51.612;7.210;2024-01-11T05:42:45;102246.09;;;-7.57;100.00
22440;BME280;11387;51.612;7.210;2024-01-11T05:45:09;102247.34;;;-7.61;100.00
22440;BME280;11387;51.612;7.210;2024-01-11T05:47:33;102245.69;;;-7.62;100.00
22440;BME280;11387;51.612;7.210;2024-01-11T05:49:57;102241.34;;;-7.63;100.00
22440;BME280;11387;51.612;7.210;2024-01-11T05:52:21;102237.44;;;-7.59;100.00
22440;BME280;11387;51.612;7.210;2024-01-11T05:54:44;102229.72;;;-7.62;100.00
22440;BME280;11387;51.612;7.210;2024-01-11T05:57:09;102242.34;;;-7.64;100.00
22440;BME280;11387;51.612;7.210;2024-01-11T05:59:33;102239.00;;;-7.66;100.00
22440;BME280;11387;51.612;7.210;2024-01-11T06:01:57;102225.00;;;-7.68;100.00
22440;BME280;11387;51.612;7.210;2024-01-11T06:04:25;102231.28;;;-7.60;100.00
22440;BME280;11387;51.612;7.210;2024-01-11T06:06:48;102220.09;;;-7.63;100.00
22440;BME280;11387;51.612;7.210;2024-01-11T06:09:12;102239.81;;;-7.56;100.00
22440;BME280;11387;51.612;7.210;2024-01-11T06:11:36;102243.44;;;-7.57;100.00
22440;BME280;11387;51.612;7.210;2024-01-11T06:13:59;102240.38;;;-7.62;100.00
22440;BME280;11387;51.612;7.210;2024-01-11T06:16:23;102234.78;;;-7.69;100.00
22440;BME280;11387;51.612;7.210;2024-01-11T06:18:47;102221.78;;;-7.72;100.00
22440;BME280;11387;51.612;7.210;2024-01-11T06:21:12;102218.28;;;-7.72;100.00
22440;BME280;11387;51.612;7.210;2024-01-11T06:23:37;102232.69;;;-7.75;100.00
22440;BME280;11387;51.612;7.210;2024-01-11T06:26:01;102239.81;;;-7.75;100.00
22440;BME280;11387;51.612;7.210;2024-01-11T06:28:25;102257.00;;;-7.51;100.00
22440;BME280;11387;51.612;7.210;2024-01-11T06:30:48;102257.16;;;-7.52;100.00
22440;BME280;11387;51.612;7.210;2024-01-11T06:33:12;102262.91;;;-7.66;100.00
22440;BME280;11387;51.612;7.210;2024-01-11T06:35:36;102266.13;;;-7.72;100.00
22440;BME280;11387;51.612;7.210;2024-01-11T06:38:01;102267.50;;;-7.78;100.00
22440;BME280;11387;51.612;7.210;2024-01-11T06:40:25;102253.78;;;-7.83;100.00
22440;BME280;11387;51.612;7.210;2024-01-11T06:42:48;102254.63;;;-7.83;100.00
22440;BME280;11387;51.612;7.210;2024-01-11T06:45:12;102249.34;;;-7.73;100.00
22440;BME280;11387;51.612;7.210;2024-01-11T06:47:38;102256.19;;;-7.51;100.00
22440;BME280;11387;51.612;7.210;2024-01-11T06:50:02;102260.94;;;-7.55;100.00
22440;BME280;11387;51.612;7.210;2024-01-11T06:52:26;102272.13;;;-7.41;100.00
22440;BME280;11387;51.612;7.210;2024-01-11T06:54:51;102277.88;;;-7.46;100.00
22440;BME280;11387;51.612;7.210;2024-01-11T06:57:14;102264.44;;;-7.44;100.00
22440;BME280;11387;51.612;7.210;2024-01-11T06:59:38;102268.06;;;-7.55;100.00
22440;BME280;11387;51.612;7.210;2024-01-11T07:02:02;102275.91;;;-7.54;100.00
22440;BME280;11387;51.612;7.210;2024-01-11T07:04:25;102284.28;;;-7.49;100.00
22440;BME280;11387;51.612;7.210;2024-01-11T07:06:52;102294.38;;;-7.52;100.00
22440;BME280;11387;51.612;7.210;2024-01-11T07:09:15;102292.97;;;-7.56;100.00
22440;BME280;11387;51.612;7.210;2024-01-11T07:11:41;102279.84;;;-7.67;100.00
22440;BME280;11387;51.612;7.210;2024-01-11T07:14:04;102300.22;;;-7.58;100.00
22440;BME280;11387;51.612;7.210;2024-01-11T07:16:28;102306.13;;;-7.45;100.00
22440;BME280;11387;51.612;7.210;2024-01-11T07:18:52;102297.88;;;-7.52;100.00
22440;BME280;11387;51.612;7.210;2024-01-11T07:21:21;102293.66;;;-7.64;100.00
22440;BME280;11387;51.612;7.210;2024-01-11T07:23:51;102286.25;;;-7.70;100.00
22440;BME280;11387;51.612;7.210;2024-01-11T07:26:15;102280.09;;;-7.70;100.00
22440;BME280;11387;51.612;7.210;2024-01-11T07:28:40;102285.13;;;-7.48;100.00
22440;BME280;11387;51.612;7.210;2024-01-11T07:31:04;102277.59;;;-7.43;100.00
22440;BME280;11387;51.612;7.210;2024-01-11T07:33:27;102294.66;;;-7.36;100.00
22440;BME280;11387;51.612;7.210;2024-01-11T07:35:51;102283.47;;;-7.39;100.00
22440;BME280;11387;51.612;7.210;2024-01-11T07:38:15;102292.66;;;-7.24;100.00
22440;BME280;11387;51.612;7.210;2024-01-11T07:40:39;102285.41;;;-7.32;100.00
22440;BME280;11387;51.612;7.210;2024-01-11T07:43:05;102278.00;;;-7.38;100.00
22440;BME280;11387;51.612;7.210;2024-01-11T07:45:30;102280.22;;;-7.33;100.00
22440;BME280;11387;51.612;7.210;2024-01-11T07:47:53;102271.72;;;-7.37;100.00
22440;BME280;11387;51.612;7.210;2024-01-11T07:50:17;102280.06;;;-7.32;100.00
22440;BME280;11387;51.612;7.210;2024-01-11T07:52:41;102269.44;;;-7.32;100.00
22440;BME280;11387;51.612;7.210;2024-01-11T07:55:19;102269.59;;;-7.24;100.00
22440;BME280;11387;51.612;7.210;2024-01-11T07:57:46;102266.63;;;-7.21;100.00
22440;BME280;11387;51.612;7.210;2024-01-11T08:00:10;102278.41;;;-7.14;100.00
22440;BME280;11387;51.612;7.210;2024-01-11T08:02:35;102270.56;;;-7.05;100.00
22440;BME280;11387;51.612;7.210;2024-01-11T08:05:00;102270.50;;;-6.96;100.00
22440;BME280;11387;51.612;7.210;2024-01-11T08:07:24;102276.09;;;-6.89;99.75
22440;BME280;11387;51.612;7.210;2024-01-11T08:09:47;102282.66;;;-6.74;98.85
22440;BME280;11387;51.612;7.210;2024-01-11T08:12:11;102297.69;;;-6.55;98.39
22440;BME280;11387;51.612;7.210;2024-01-11T08:14:35;102303.19;;;-6.29;97.43
22440;BME280;11387;51.612;7.210;2024-01-11T08:16:58;102293.97;;;-6.07;97.23
22440;BME280;11387;51.612;7.210;2024-01-11T08:19:33;102291.09;;;-5.79;94.69
22440;BME280;11387;51.612;7.210;2024-01-11T08:21:56;102285.91;;;-5.80;92.99
22440;BME280;11387;51.612;7.210;2024-01-11T08:24:20;102286.69;;;-5.70;92.34
22440;BME280;11387;51.612;7.210;2024-01-11T08:26:43;102294.28;;;-5.75;92.15
22440;BME280;11387;51.612;7.210;2024-01-11T08:29:07;102297.56;;;-4.24;90.83
22440;BME280;11387;51.612;7.210;2024-01-11T08:31:33;102314.16;;;-2.65;80.87
22440;BME280;11387;51.612;7.210;2024-01-11T08:34:00;102319.97;;;-1.59;73.02
22440;BME280;11387;51.612;7.210;2024-01-11T08:36:30;102331.97;;;-0.49;67.68
22440;BME280;11387;51.612;7.210;2024-01-11T08:38:55;102338.56;;;0.80;62.33
22440;BME280;11387;51.612;7.210;2024-01-11T08:41:19;102348.13;;;1.59;59.88
22440;BME280;11387;51.612;7.210;2024-01-11T08:43:43;102349.50;;;1.77;55.63
22440;BME280;11387;51.612;7.210;2024-01-11T08:46:06;102344.03;;;1.35;53.94
22440;BME280;11387;51.612;7.210;2024-01-11T08:48:30;102345.16;;;0.77;55.20
22440;BME280;11387;51.612;7.210;2024-01-11T08:50:54;102348.88;;;0.40;57.38
22440;BME280;11387;51.612;7.210;2024-01-11T08:53:20;102350.00;;;0.67;56.47
22440;BME280;11387;51.612;7.210;2024-01-11T08:55:43;102337.00;;;2.03;52.23
22440;BME280;11387;51.612;7.210;2024-01-11T08:58:09;102346.41;;;3.67;50.01
22440;BME280;11387;51.612;7.210;2024-01-11T09:00:32;102374.09;;;4.54;46.25
22440;BME280;11387;51.612;7.210;2024-01-11T09:02:56;102371.88;;;5.38;43.21
22440;BME280;11387;51.612;7.210;2024-01-11T09:05:21;102377.63;;;7.36;38.85
22440;BME280;11387;51.612;7.210;2024-01-11T09:07:44;102365.81;;;7.66;37.56
22440;BME280;11387;51.612;7.210;2024-01-11T09:10:10;102354.47;;;8.56;36.64
22440;BME280;11387;51.612;7.210;2024-01-11T09:12:34;102353.72;;;7.97;36.35
22440;BME280;11387;51.612;7.210;2024-01-11T09:14:58;102338.78;;;7.64;35.45
22440;BME280;11387;51.612;7.210;2024-01-11T09:17:22;102346.34;;;6.26;37.48
22440;BME280;11387;51.612;7.210;2024-01-11T09:19:45;102346.09;;;6.75;37.27
22440;BME280;11387;51.612;7.210;2024-01-11T09:22:09;102344.34;;;6.81;37.55
22440;BME280;11387;51.612;7.210;2024-01-11T09:24:33;102359.06;;;7.45;35.85
22440;BME280;11387;51.612;7.210;2024-01-11T09:27:02;102370.91;;;7.86;34.52
22440;BME280;11387;51.612;7.210;2024-01-11T09:29:26;102375.31;;;9.91;32.28
22440;BME280;11387;51.612;7.210;2024-01-11T09:31:50;102376.50;;;10.33;31.61
22440;BME280;11387;51.612;7.210;2024-01-11T09:34:14;102367.94;;;8.62;33.40
22440;BME280;11387;51.612;7.210;2024-01-11T09:36:38;102361.63;;;6.57;36.27
22440;BME280;11387;51.612;7.210;2024-01-11T09:39:02;102364.63;;;5.01;39.14
22440;BME280;11387;51.612;7.210;2024-01-11T09:41:29;102377.69;;;5.85;38.24
22440;BME280;11387;51.612;7.210;2024-01-11T09:43:56;102393.97;;;7.48;35.47
22440;BME280;11387;51.612;7.210;2024-01-11T09:46:24;102400.38;;;7.65;34.52
22440;BME280;11387;51.612;7.210;2024-01-11T09:48:50;102401.31;;;6.94;35.92
22440;BME280;11387;51.612;7.210;2024-01-11T09:51:15;102404.28;;;8.39;34.43
22440;BME280;11387;51.612;7.210;2024-01-11T09:53:40;102402.66;;;8.03;33.66
22440;BME280;11387;51.612;7.210;2024-01-11T09:56:07;102410.09;;;8.55;34.34
22440;BME280;11387;51.612;7.210;2024-01-11T09:58:32;102420.16;;;9.56;32.67
22440;BME280;11387;51.612;7.210;2024-01-11T10:00:59;102409.78;;;10.69;30.26
22440;BME280;11387;51.612;7.210;2024-01-11T10:03:24;102412.25;;;11.51;29.92
22440;BME280;11387;51.612;7.210;2024-01-11T10:05:49;102409.78;;;11.50;28.83
22440;BME280;11387;51.612;7.210;2024-01-11T10:08:13;102418.66;;;11.30;29.75
22440;BME280;11387;51.612;7.210;2024-01-11T10:10:37;102408.56;;;11.72;29.14
22440;BME280;11387;51.612;7.210;2024-01-11T10:13:04;102406.31;;;11.00;29.09
22440;BME280;11387;51.612;7.210;2024-01-11T10:15:28;102405.75;;;12.41;28.01
22440;BME280;11387;51.612;7.210;2024-01-11T10:17:53;102408.53;;;12.46;27.36
22440;BME280;11387;51.612;7.210;2024-01-11T10:20:17;102400.53;;;9.59;30.51
22440;BME280;11387;51.612;7.210;2024-01-11T10:22:46;102390.59;;;9.36;31.48
22440;BME280;11387;51.612;7.210;2024-01-11T10:25:11;102397.06;;;9.47;31.53
22440;BME280;11387;51.612;7.210;2024-01-11T10:27:35;102393.72;;;9.11;31.46
22440;BME280;11387;51.612;7.210;2024-01-11T10:29:58;102400.28;;;8.19;32.77
22440;BME280;11387;51.612;7.210;2024-01-11T10:32:21;102398.41;;;7.61;33.86
22440;BME280;11387;51.612;7.210;2024-01-11T10:34:46;102403.09;;;8.47;33.29
22440;BME280;11387;51.612;7.210;2024-01-11T10:37:10;102403.03;;;9.44;31.37
22440;BME280;11387;51.612;7.210;2024-01-11T10:39:34;102399.13;;;9.40;31.63
22440;BME280;11387;51.612;7.210;2024-01-11T10:42:04;102387.34;;;8.14;32.92
22440;BME280;11387;51.612;7.210;2024-01-11T10:44:30;102386.75;;;9.21;31.71
22440;BME280;11387;51.612;7.210;2024-01-11T10:46:56;102386.59;;;8.54;32.27
22440;BME280;11387;51.612;7.210;2024-01-11T10:49:22;102393.09;;;11.88;29.12
22440;BME280;11387;51.612;7.210;2024-01-11T10:51:53;102394.81;;;12.52;27.41
22440;BME280;11387;51.612;7.210;2024-01-11T10:54:19;102389.16;;;12.78;27.23
22440;BME280;11387;51.612;7.210;2024-01-11T10:56:43;102381.06;;;11.94;27.30
22440;BME280;11387;51.612;7.210;2024-01-11T10:59:07;102387.91;;;13.72;25.70
22440;BME280;11387;51.612;7.210;2024-01-11T11:01:33;102380.06;;;12.73;26.26
22440;BME280;11387;51.612;7.210;2024-01-11T11:03:57;102380.41;;;12.19;26.81
22440;BME280;11387;51.612;7.210;2024-01-11T11:06:22;102385.16;;;13.32;25.84
22440;BME280;11387;51.612;7.210;2024-01-11T11:08:49;102392.84;;;13.75;25.13
22440;BME280;11387;51.612;7.210;2024-01-11T11:11:15;102392.44;;;14.97;24.67
22440;BME280;11387;51.612;7.210;2024-01-11T11:13:41;102396.59;;;14.25;24.10
22440;BME280;11387;51.612;7.210;2024-01-11T11:16:06;102382.91;;;13.08;24.76
22440;BME280;11387;51.612;7.210;2024-01-11T11:18:33;102400.78;;;12.38;26.70
22440;BME280;11387;51.612;7.210;2024-01-11T11:20:58;102385.28;;;11.75;27.01
22440;BME280;11387;51.612;7.210;2024-01-11T11:23:22;102383.00;;;10.76;28.08
22440;BME280;11387;51.612;7.210;2024-01-11T11:25:48;102401.91;;;13.61;25.68
22440;BME280;11387;51.612;7.210;2024-01-11T11:28:16;102403.78;;;13.09;25.44
22440;BME280;11387;51.612;7.210;2024-01-11T11:30:44;102401.06;;;13.20;25.10
22440;BME280;11387;51.612;7.210;2024-01-11T11:33:15;102394.97;;;14.09;24.73
22440;BME280;11387;51.612;7.210;2024-01-11T11:35:40;102391.09;;;14.15;25.16
22440;BME280;11387;51.612;7.210;2024-01-11T11:38:05;102383.06;;;15.32;23.83
22440;BME280;11387;51.612;7.210;2024-01-11T11:40:32;102380.78;;;16.74;22.30
22440;BME280;11387;51.612;7.210;2024-01-11T11:43:02;102380.78;;;16.74;21.78
22440;BME280;11387;51.612;7.210;2024-01-11T11:45:28;102372.66;;;16.59;21.67
22440;BME280;11387;51.612;7.210;2024-01-11T11:47:52;102370.94;;;15.96;21.09
22440;BME280;11387;51.612;7.210;2024-01-11T11:50:16;102372.50;;;15.05;21.87
22440;BME280;11387;51.612;7.210;2024-01-11T11:52:40;102370.66;;;14.46;22.72
22440;BME280;11387;51.612;7.210;2024-01-11T11:55:07;102377.66;;;14.78;22.38
22440;BME280;11387;51.612;7.210;2024-01-11T11:57:31;102382.97;;;15.81;21.62
22440;BME280;11387;51.612;7.210;2024-01-11T11:59:57;102378.72;;;16.18;21.60
22440;BME280;11387;51.612;7.210;2024-01-11T12:02:21;102380.22;;;17.47;20.06
22440;BME280;11387;51.612;7.210;2024-01-11T12:04:55;102371.28;;;16.37;19.96
22440;BME280;11387;51.612;7.210;2024-01-11T12:07:19;102362.91;;;15.37;21.06
22440;BME280;11387;51.612;7.210;2024-01-11T12:09:43;102357.66;;;13.27;23.46
22440;BME280;11387;51.612;7.210;2024-01-11T12:12:08;102378.63;;;15.36;22.14
22440;BME280;11387;51.612;7.210;2024-01-11T12:14:38;102375.31;;;17.25;20.45
22440;BME280;11387;51.612;7.210;2024-01-11T12:17:03;102383.97;;;18.16;18.95
22440;BME280;11387;51.612;7.210;2024-01-11T12:19:27;102380.72;;;17.49;18.75
22440;BME280;11387;51.612;7.210;2024-01-11T12:21:51;102386.00;;;16.09;20.16
22440;BME280;11387;51.612;7.210;2024-01-11T12:24:17;102375.41;;;17.52;19.69
22440;BME280;11387;51.612;7.210;2024-01-11T12:26:40;102370.63;;;18.18;19.25
22440;BME280;11387;51.612;7.210;2024-01-11T12:29:04;102384.91;;;17.98;18.81
22440;BME280;11387;51.612;7.210;2024-01-11T12:31:29;102386.84;;;18.11;19.27
22440;BME280;11387;51.612;7.210;2024-01-11T12:33:54;102375.59;;;15.72;20.97
22440;BME280;11387;51.612;7.210;2024-01-11T12:36:18;102368.06;;;12.22;23.78